createdAt,value
2023-02-24T00:00:51.770Z,92.24
2023-02-24T00:05:59.422Z,92.07
2023-02-24T00:11:11.411Z,92.12
2023-02-24T00:16:35.527Z,93.68
2023-02-24T00:21:45.419Z,92.50
2023-02-24T00:27:03.773Z,93.46
2023-02-24T00:32:22.554Z,93.43
2023-02-24T00:37:29.746Z,94.05
2023-02-24T00:42:50.220Z,94.14
2023-02-24T00:47:57.723Z,94.61
2023-02-24T00:53:06.854Z,94.69
2023-02-24T00:58:09.568Z,94.68
2023-02-24T01:03:17.083Z,94.69
2023-02-24T01:08:22.000Z,94.73
2023-02-24T01:13:28.045Z,93.63
2023-02-24T01:18:39.264Z,83.26
2023-02-24T01:23:44.162Z,80.72
2023-02-24T01:28:52.264Z,77.71
2023-02-24T01:34:05.945Z,76.66
2023-02-24T01:39:12.302Z,77.79
2023-02-24T01:44:14.807Z,77.43
2023-02-24T01:49:36.993Z,77.61
2023-02-24T01:55:00.167Z,78.73
2023-02-24T02:00:33.521Z,78.97
2023-02-24T02:05:41.176Z,80.83
2023-02-24T02:10:51.039Z,81.42
2023-02-24T02:20:31.480Z,82.95
2023-02-24T02:26:03.198Z,83.40
2023-02-24T02:31:27.834Z,83.41
2023-02-24T02:36:50.224Z,82.58
2023-02-24T02:42:20.515Z,81.64
2023-02-24T02:47:43.544Z,80.83
2023-02-24T02:53:10.692Z,80.12
2023-02-24T02:58:23.222Z,80.47
2023-02-24T03:03:29.186Z,80.22
2023-02-24T03:08:39.022Z,80.48
2023-02-24T03:13:51.520Z,79.14
2023-02-24T03:19:06.478Z,78.43
2023-02-24T03:24:10.103Z,78.21
2023-02-24T03:29:24.212Z,77.92
2023-02-24T03:34:43.121Z,77.27
2023-02-24T03:39:51.931Z,76.97
2023-02-24T03:45:00.264Z,75.68
2023-02-24T03:50:02.753Z,75.27
2023-02-24T03:55:34.391Z,73.09
2023-02-24T04:00:49.985Z,74.09
2023-02-24T04:06:15.982Z,74.66
2023-02-24T04:11:41.488Z,73.91
2023-02-24T04:16:58.060Z,73.47
2023-02-24T04:22:01.419Z,74.01
2023-02-24T04:27:11.606Z,73.46
2023-02-24T04:32:22.072Z,73.31
2023-02-24T04:37:26.706Z,72.57
2023-02-24T04:42:28.934Z,72.31
2023-02-24T04:47:42.998Z,71.99
2023-02-24T04:52:47.808Z,71.44
2023-02-24T04:57:55.583Z,71.33
2023-02-24T05:09:22.467Z,71.18
2023-02-24T05:14:29.095Z,70.81
2023-02-24T05:19:51.866Z,70.66
2023-02-24T05:24:59.560Z,70.20
2023-02-24T05:35:22.923Z,69.38
2023-02-24T05:40:36.013Z,69.26
2023-02-24T05:45:43.299Z,68.27
2023-02-24T05:50:54.967Z,68.46
2023-02-24T05:56:06.562Z,68.56
2023-02-24T06:01:17.121Z,67.83
2023-02-24T06:06:27.329Z,67.91
2023-02-24T06:11:31.766Z,67.78
2023-02-24T06:16:46.149Z,66.85
2023-02-24T06:22:06.799Z,66.07
2023-02-24T06:27:13.595Z,66.15
2023-02-24T06:32:26.157Z,65.40
2023-02-24T06:37:31.589Z,65.72
2023-02-24T06:42:40.726Z,65.89
2023-02-24T06:47:53.255Z,66.03
2023-02-24T06:53:12.974Z,65.51
2023-02-24T06:58:24.494Z,64.72
2023-02-24T07:03:49.391Z,65.59
2023-02-24T07:14:20.457Z,65.43
2023-02-24T07:19:29.559Z,64.93
2023-02-24T07:24:46.777Z,64.40
2023-02-24T07:30:02.813Z,64.47
2023-02-24T07:35:20.849Z,64.34
2023-02-24T07:40:26.438Z,64.11
2023-02-24T07:45:39.614Z,63.69
2023-02-24T07:56:20.260Z,60.93
2023-02-24T08:01:42.385Z,60.36
2023-02-24T08:06:57.804Z,58.76
2023-02-24T08:12:02.672Z,57.02
2023-02-24T08:17:09.635Z,55.93
2023-02-24T08:22:21.134Z,53.77
2023-02-24T08:27:39.228Z,54.38
2023-02-24T08:32:44.098Z,54.21
2023-02-24T08:37:57.510Z,54.95
2023-02-24T08:43:22.798Z,53.85
2023-02-24T08:48:47.496Z,52.25
2023-02-24T08:53:56.193Z,52.36
2023-02-24T08:59:29.643Z,51.63
2023-02-24T09:04:37.171Z,52.37
2023-02-24T09:09:54.034Z,52.80
2023-02-24T09:15:07.085Z,51.09
2023-02-24T09:20:29.766Z,50.26
2023-02-24T09:25:50.685Z,50.63
2023-02-24T09:31:01.726Z,50.83
2023-02-24T09:36:42.601Z,48.19
2023-02-24T09:42:14.139Z,49.24
2023-02-24T09:47:47.962Z,48.45
2023-02-24T09:53:17.677Z,48.76
2023-02-24T09:58:47.901Z,48.89
2023-02-24T10:04:20.996Z,49.56
2023-02-24T10:09:47.571Z,48.70
2023-02-24T10:15:22.858Z,47.09
2023-02-24T10:20:49.039Z,49.33
2023-02-24T10:26:07.119Z,48.56
2023-02-24T10:31:43.232Z,46.68
2023-02-24T10:36:52.953Z,48.77
2023-02-24T10:42:19.793Z,48.19
2023-02-24T10:47:35.813Z,46.85
2023-02-24T10:53:04.882Z,46.16
2023-02-24T10:59:08.356Z,45.33
2023-02-24T11:04:34.502Z,46.17
2023-02-24T11:10:00.850Z,46.37
2023-02-24T11:15:49.595Z,45.37
2023-02-24T11:21:14.898Z,44.36
2023-02-24T11:26:40.122Z,43.01
2023-02-24T11:32:09.359Z,42.91
2023-02-24T11:37:45.541Z,43.87
2023-02-24T11:42:57.206Z,44.19
2023-02-24T11:48:24.949Z,43.08
2023-02-24T11:53:52.024Z,42.84
2023-02-24T11:59:25.372Z,42.11
2023-02-24T12:04:50.536Z,42.95
2023-02-24T12:10:24.481Z,41.49
2023-02-24T12:15:56.612Z,40.92
2023-02-24T12:21:23.651Z,40.16
2023-02-24T12:26:56.926Z,41.00
2023-02-24T12:32:35.349Z,39.95
2023-02-24T12:38:06.208Z,40.99
2023-02-24T12:43:33.799Z,41.89
2023-02-24T12:48:59.372Z,39.67
2023-02-24T12:54:24.676Z,40.39
2023-02-24T12:59:46.218Z,40.78
2023-02-24T13:05:41.888Z,39.03
2023-02-24T13:10:52.099Z,42.10
2023-02-24T13:16:01.943Z,40.02
2023-02-24T13:21:28.294Z,38.99
2023-02-24T13:26:34.688Z,41.30
2023-02-24T13:31:48.559Z,39.03
2023-02-24T13:36:54.166Z,41.68
2023-02-24T13:42:31.464Z,39.23
2023-02-24T13:47:52.923Z,38.04
2023-02-24T13:53:34.793Z,39.44
2023-02-24T13:59:09.656Z,39.01
2023-02-24T14:04:21.689Z,41.56
2023-02-24T14:09:52.321Z,39.36
2023-02-24T14:15:02.370Z,41.19
2023-02-24T14:20:29.847Z,40.00
2023-02-24T14:25:42.171Z,40.31
2023-02-24T14:30:59.919Z,40.23
2023-02-24T14:36:14.771Z,41.44
2023-02-24T14:41:30.784Z,41.26
2023-02-24T14:46:50.586Z,42.89
2023-02-24T14:52:20.274Z,43.05
2023-02-24T14:57:42.269Z,42.61
2023-02-24T15:03:20.869Z,43.49
2023-02-24T15:08:40.252Z,43.23
2023-02-24T15:13:53.226Z,43.89
2023-02-24T15:19:01.952Z,44.82
2023-02-24T15:24:37.497Z,44.30
2023-02-24T15:30:00.851Z,44.76
2023-02-24T15:35:06.642Z,45.88
2023-02-24T15:40:31.647Z,45.69
2023-02-24T15:45:43.389Z,46.12
2023-02-24T15:50:53.950Z,46.92
2023-02-24T15:56:07.167Z,47.08
2023-02-24T16:01:20.192Z,46.97
2023-02-24T16:06:37.747Z,46.67
2023-02-24T16:11:47.294Z,47.38
2023-02-24T16:17:01.113Z,46.89
2023-02-24T16:22:15.862Z,47.71
2023-02-24T16:27:22.121Z,48.06
2023-02-24T16:32:30.356Z,47.01
2023-02-24T16:37:50.303Z,47.33
2023-02-24T16:43:00.426Z,46.55
2023-02-24T16:48:27.672Z,44.81
2023-02-24T16:53:33.740Z,46.50
2023-02-24T16:58:41.525Z,45.51
2023-02-24T17:03:49.142Z,45.63
2023-02-24T17:08:56.044Z,44.84
2023-02-24T17:14:05.860Z,44.81
2023-02-24T17:19:22.538Z,45.93
2023-02-24T17:24:35.631Z,45.93
2023-02-24T17:29:50.610Z,46.03
2023-02-24T17:34:59.576Z,47.07
2023-02-24T17:40:06.598Z,46.64
2023-02-24T17:45:14.241Z,45.90
2023-02-24T17:50:17.901Z,46.12
2023-02-24T17:55:23.319Z,46.47
2023-02-24T18:00:29.192Z,46.26
2023-02-24T18:05:36.669Z,46.71
2023-02-24T18:10:40.239Z,46.32
2023-02-24T18:15:42.347Z,47.17
2023-02-24T18:20:44.994Z,46.77
2023-02-24T18:25:47.630Z,46.44
2023-02-24T18:30:49.749Z,47.00
2023-02-24T18:36:01.045Z,46.53
2023-02-24T18:41:09.168Z,47.06
2023-02-24T18:46:13.686Z,47.80
2023-02-24T18:51:22.406Z,47.63
2023-02-24T18:56:31.158Z,48.21
2023-02-24T19:01:38.898Z,48.13
2023-02-24T19:06:42.232Z,48.72
2023-02-24T19:11:44.414Z,48.71
2023-02-24T19:16:46.434Z,49.44
2023-02-24T19:21:49.594Z,48.95
2023-02-24T19:26:53.447Z,49.83
2023-02-24T19:31:59.476Z,49.87
2023-02-24T19:37:01.803Z,50.28
2023-02-24T19:42:03.970Z,50.68
2023-02-24T19:47:05.853Z,50.16
2023-02-24T19:52:08.092Z,50.70
2023-02-24T19:57:10.453Z,50.75
2023-02-24T20:02:17.144Z,51.53
2023-02-24T20:07:19.328Z,50.86
2023-02-24T20:12:25.372Z,50.81
2023-02-24T20:17:37.913Z,51.09
2023-02-24T20:22:45.911Z,51.33
2023-02-24T20:28:03.175Z,51.54
2023-02-24T20:33:11.655Z,51.25
2023-02-24T20:38:17.064Z,51.67
2023-02-24T20:43:23.044Z,51.62
2023-02-24T20:48:51.516Z,51.62
2023-02-24T20:54:01.885Z,52.28
2023-02-24T20:59:17.772Z,51.81
2023-02-24T21:04:21.547Z,51.88
2023-02-24T21:09:30.316Z,52.30
2023-02-24T21:14:35.579Z,52.54
2023-02-24T21:19:45.744Z,52.79
2023-02-24T21:24:50.828Z,52.21
2023-02-24T21:30:00.239Z,52.88
2023-02-24T21:35:11.773Z,53.39
2023-02-24T21:40:18.741Z,52.90
2023-02-24T21:45:27.972Z,53.31
2023-02-24T21:55:52.309Z,54.25
2023-02-24T22:00:58.398Z,53.85
2023-02-24T22:06:04.849Z,54.14
2023-02-24T22:11:19.369Z,54.24
2023-02-24T22:16:27.438Z,54.65
2023-02-24T22:21:34.799Z,54.84
2023-02-24T22:26:46.782Z,55.05
2023-02-24T22:31:52.079Z,54.55
2023-02-24T22:36:58.481Z,54.96
2023-02-24T22:42:04.522Z,55.36
2023-02-24T22:47:10.739Z,55.42
2023-02-24T22:52:18.128Z,54.76
2023-02-24T22:57:21.693Z,55.66
2023-02-24T23:02:32.690Z,55.70
2023-02-24T23:07:50.794Z,55.73
2023-02-24T23:13:15.288Z,56.69
2023-02-24T23:18:21.777Z,56.47
2023-02-24T23:23:29.343Z,56.81
2023-02-24T23:28:57.771Z,57.30
2023-02-24T23:34:10.198Z,57.61
2023-02-24T23:39:40.431Z,56.71
2023-02-24T23:44:52.543Z,56.80
2023-02-24T23:50:07.212Z,56.77
2023-02-24T23:55:32.264Z,57.21
